Westchester, California
Current Conditions -  °F | °C
As of 9:53 AM on Saturday 20 Dec 2014 (Local Time) from KLAX Reporting Station
Broken Clouds Broken Clouds  
Wind Chill: 58°   Ceiling: 28000
Heat Index: 58°   Visibility: 10mi
Dew Point: 49°   Wind: 5mph
Humidity: 72%   Direction: 120°ESE
Pressure: 30.2"   Gusts: NA
Location:  33.9534°N, 118.399°W
Report Text: KLAX 201753Z 12004KT 10SM FEW027 SCT220 BKN280 14/09 A3020 RMK AO2 SLP227 T01440094 10144 20100 53013
Loading
Personal Weather Stations






























Interactive Weather Map New forecast layout! Learn more

10-Day Weather Forecast

Advertisements
Track Severe Weather on mobile